Terminal Aerodrome Forecast
Issued by NWS Tampa Bay Area, FL

Home | Current Version | Previous Version | Text Only | Print | Product List | Glossary On
Versions: 1 2 3 4 5 6 7 8 9 10 11 12 13 14 15
000
FTUS42 KTBW 311737
TAFSRQ
TAF
KSRQ 311737Z 3118/0118 16008KT P6SM VCTS SCT030CB BKN100 OVC250
      TEMPO 3118/3122 VRB15G25KT 3SM TSRA BKN020CB
     FM010300 14004KT P6SM SCT035 BKN120 OVC250
     FM011500 17010KT P6SM VCTS SCT025CB SCT120 BKN250=

USA.gov is the U.S. government's official web portal to all federal, state and local government web resources and services.